Time;durP1;ratioP1;P1;durP2;ratioP2;P2;SDS_P1;SDS_P2;PMS_P1;PMS_P2;Temp;Humidity;BMP_temperature;BMP_pressure;BME280_temperature;BME280_humidity;BME280_pressure;Samples;Min_cycle;Max_cycle;Signal;HPM_P1;HPM_P2
2020/12/22 00:00:09;;;;;;;11.93;6.22;;;3.20;60.60;;;;;;5055398;28;20437;-70
2020/12/22 00:02:42;;;;;;;10.25;5.50;;;3.20;60.60;;;;;;5055597;28;20512;-71
2020/12/22 00:05:08;;;;;;;8.30;5.00;;;3.20;60.50;;;;;;5055538;28;20112;-71
2020/12/22 00:07:33;;;;;;;9.55;5.78;;;3.30;60.40;;;;;;5055237;28;20103;-73
2020/12/22 00:09:59;;;;;;;10.95;6.40;;;3.30;60.20;;;;;;5055383;28;20052;-70
2020/12/22 00:12:25;;;;;;;12.13;6.43;;;3.20;60.10;;;;;;5054951;28;20036;-71
2020/12/22 00:14:50;;;;;;;10.27;6.13;;;3.20;60.20;;;;;;5055498;28;20025;-73
2020/12/22 00:17:16;;;;;;;14.82;7.20;;;3.30;60.30;;;;;;5055604;28;20024;-71
2020/12/22 00:19:42;;;;;;;12.43;5.95;;;3.30;60.30;;;;;;5055742;28;20032;-71
2020/12/22 00:22:07;;;;;;;13.00;7.05;;;3.30;60.30;;;;;;5055140;28;20055;-70
2020/12/22 00:24:33;;;;;;;12.05;6.85;;;3.30;60.30;;;;;;5054055;28;20090;-71
2020/12/22 00:26:59;;;;;;;11.07;6.30;;;3.30;60.30;;;;;;5054919;28;20099;-71
2020/12/22 00:29:24;;;;;;;13.15;6.72;;;3.30;60.30;;;;;;5055671;28;20032;-71
2020/12/22 00:31:50;;;;;;;16.33;6.95;;;3.30;60.40;;;;;;5054864;28;20450;-70
2020/12/22 00:34:15;;;;;;;14.00;7.32;;;3.40;60.30;;;;;;5053429;28;20079;-75
2020/12/22 00:36:41;;;;;;;13.70;7.80;;;3.40;60.30;;;;;;5055599;28;20048;-72
2020/12/22 00:39:07;;;;;;;16.88;8.70;;;3.40;60.20;;;;;;5055101;28;20108;-71
2020/12/22 00:41:32;;;;;;;18.00;8.07;;;3.40;60.20;;;;;;5054245;28;20035;-71
2020/12/22 00:43:58;;;;;;;18.65;8.13;;;3.40;60.10;;;;;;5054977;28;20025;-70
2020/12/22 00:46:24;;;;;;;15.43;8.55;;;3.40;60.10;;;;;;5054913;28;20445;-71
2020/12/22 00:48:49;;;;;;;15.80;8.40;;;3.40;60.10;;;;;;5055290;28;20028;-70
2020/12/22 00:51:22;;;;;;;18.63;9.18;;;3.40;60.20;;;;;;5054801;28;20021;-71
2020/12/22 00:53:48;;;;;;;16.40;7.78;;;3.40;60.20;;;;;;5054707;28;20024;-71
2020/12/22 00:56:14;;;;;;;16.00;7.32;;;3.30;60.20;;;;;;5055114;28;20029;-70
2020/12/22 00:58:39;;;;;;;15.43;7.90;;;3.40;60.10;;;;;;5055116;28;20096;-70
2020/12/22 01:01:05;;;;;;;16.10;8.30;;;3.40;60.20;;;;;;5054646;28;20021;-70
2020/12/22 01:03:31;;;;;;;15.60;8.30;;;3.40;60.20;;;;;;5054793;28;20108;-70
2020/12/22 01:05:57;;;;;;;14.38;7.47;;;3.40;60.20;;;;;;5054269;28;20053;-70
2020/12/22 01:08:22;;;;;;;15.45;8.32;;;3.40;60.10;;;;;;5054303;28;20365;-73
2020/12/22 01:10:49;;;;;;;15.73;8.32;;;3.40;59.90;;;;;;5055019;28;20090;-71
2020/12/22 01:13:14;;;;;;;15.65;8.35;;;3.30;59.80;;;;;;5053074;28;20032;-72
2020/12/22 01:15:40;;;;;;;17.02;8.70;;;3.30;59.90;;;;;;5054297;28;20025;-71
2020/12/22 01:18:06;;;;;;;14.98;7.80;;;3.20;60.10;;;;;;5053992;28;20028;-70
2020/12/22 01:20:31;;;;;;;15.70;7.85;;;3.20;60.20;;;;;;5054330;28;20029;-70
2020/12/22 01:22:57;;;;;;;14.25;7.80;;;3.10;60.10;;;;;;5054197;28;20028;-70
2020/12/22 01:25:23;;;;;;;17.45;8.50;;;3.10;60.30;;;;;;5052936;28;20017;-69
2020/12/22 01:27:48;;;;;;;17.35;9.25;;;3.00;60.40;;;;;;5052178;28;20151;-73
2020/12/22 01:30:14;;;;;;;16.73;8.77;;;3.00;60.50;;;;;;5052815;28;20044;-70
2020/12/22 01:32:39;;;;;;;15.48;8.65;;;3.00;60.60;;;;;;5053840;28;20361;-69
2020/12/22 01:35:05;;;;;;;17.63;9.02;;;3.00;60.50;;;;;;5053938;28;20021;-70
2020/12/22 01:37:32;;;;;;;19.95;9.70;;;3.00;60.60;;;;;;5052691;28;20021;-71
2020/12/22 01:39:57;;;;;;;18.27;9.80;;;3.00;60.70;;;;;;5053931;28;20072;-70
2020/12/22 01:42:23;;;;;;;17.50;9.80;;;3.00;60.70;;;;;;5054179;28;20021;-70
2020/12/22 01:44:49;;;;;;;20.58;10.10;;;3.00;60.80;;;;;;5053883;28;20024;-70
2020/12/22 01:47:14;;;;;;;17.30;9.45;;;3.00;60.80;;;;;;5053571;28;20032;-71
2020/12/22 01:49:40;;;;;;;20.45;10.93;;;3.00;61.00;;;;;;5053467;28;20021;-70
2020/12/22 01:52:06;;;;;;;19.30;10.57;;;3.00;60.90;;;;;;5053191;28;20074;-71
2020/12/22 01:54:32;;;;;;;19.85;10.27;;;3.00;60.90;;;;;;5053228;28;20112;-70
2020/12/22 01:56:58;;;;;;;22.48;11.68;;;3.00;61.00;;;;;;5053762;28;20028;-71
2020/12/22 01:59:24;;;;;;;21.38;10.30;;;3.00;60.90;;;;;;5053665;28;20029;-69
2020/12/22 02:01:52;;;;;;;22.52;11.50;;;2.90;61.00;;;;;;5053689;28;20029;-69
2020/12/22 02:04:18;;;;;;;19.65;10.80;;;2.90;61.10;;;;;;5053684;28;20104;-70
2020/12/22 02:06:44;;;;;;;21.85;11.38;;;2.90;61.20;;;;;;5053364;28;20027;-70
2020/12/22 02:09:10;;;;;;;21.17;11.18;;;2.90;61.00;;;;;;5053093;28;20373;-70
2020/12/22 02:11:38;;;;;;;23.08;11.50;;;2.90;61.00;;;;;;5053523;28;20021;-69
2020/12/22 02:14:06;;;;;;;20.58;11.85;;;2.90;61.20;;;;;;5053575;28;20096;-69
2020/12/22 02:16:31;;;;;;;23.30;11.50;;;2.90;61.40;;;;;;5053496;28;20032;-70
2020/12/22 02:18:57;;;;;;;19.90;10.98;;;2.90;61.40;;;;;;5053501;28;20333;-70
2020/12/22 02:21:24;;;;;;;23.20;11.10;;;3.00;61.40;;;;;;5052203;28;20017;-70
2020/12/22 02:23:52;;;;;;;23.73;12.52;;;2.90;61.40;;;;;;5053487;28;20025;-71
2020/12/22 02:26:19;;;;;;;24.52;11.60;;;3.00;61.60;;;;;;5053350;28;20029;-71
2020/12/22 02:28:45;;;;;;;23.02;11.63;;;3.00;61.50;;;;;;5051152;28;20032;-70
2020/12/22 02:31:10;;;;;;;26.67;12.90;;;3.10;61.60;;;;;;5053666;28;20029;-70
2020/12/22 02:33:36;;;;;;;22.55;11.95;;;3.10;61.60;;;;;;5053029;28;20048;-69
2020/12/22 02:36:06;;;;;;;22.55;11.50;;;3.10;61.50;;;;;;5053629;28;20032;-70
2020/12/22 02:38:32;;;;;;;23.58;11.95;;;3.20;61.50;;;;;;5053000;28;20025;-70
2020/12/22 02:40:58;;;;;;;27.23;12.98;;;3.20;61.50;;;;;;5052752;28;20025;-70
2020/12/22 02:43:23;;;;;;;27.42;12.70;;;3.20;61.40;;;;;;5052932;28;20029;-70
2020/12/22 02:45:49;;;;;;;27.20;13.60;;;3.20;61.40;;;;;;5052935;28;20039;-70
2020/12/22 02:48:15;;;;;;;25.83;12.98;;;3.20;61.50;;;;;;5052118;28;20024;-70
2020/12/22 02:50:40;;;;;;;25.63;12.82;;;3.20;61.50;;;;;;5053185;28;20024;-70
2020/12/22 02:53:07;;;;;;;25.33;12.55;;;3.20;61.70;;;;;;5052443;28;20025;-71
2020/12/22 02:55:33;;;;;;;26.08;12.60;;;3.20;61.70;;;;;;5053469;28;20333;-69
2020/12/22 02:57:58;;;;;;;28.15;14.25;;;3.30;62.20;;;;;;5053140;28;20028;-71
2020/12/22 03:00:24;;;;;;;25.80;13.05;;;3.30;61.60;;;;;;5052779;28;20366;-71
2020/12/22 03:02:50;;;;;;;29.60;13.63;;;3.30;61.50;;;;;;5051855;28;20017;-71
2020/12/22 03:05:16;;;;;;;28.30;13.10;;;3.20;61.50;;;;;;5056195;28;20449;-70
2020/12/22 03:07:42;;;;;;;30.15;14.60;;;3.20;61.70;;;;;;5056861;28;20032;-70
2020/12/22 03:10:10;;;;;;;29.85;13.88;;;3.20;61.70;;;;;;5056859;28;20049;-70
2020/12/22 03:12:36;;;;;;;30.88;14.43;;;3.10;61.70;;;;;;5056855;28;20021;-70
2020/12/22 03:15:03;;;;;;;30.85;15.13;;;3.10;61.80;;;;;;5056948;28;20021;-70
2020/12/22 03:17:29;;;;;;;31.67;14.30;;;3.10;61.90;;;;;;5056766;28;20029;-70
2020/12/22 03:19:55;;;;;;;30.38;14.60;;;3.10;61.90;;;;;;5055412;28;20032;-70
2020/12/22 03:22:21;;;;;;;27.95;13.98;;;3.10;62.20;;;;;;5055300;28;20140;-70
2020/12/22 03:24:46;;;;;;;33.13;15.77;;;3.10;62.30;;;;;;5056494;28;20052;-69
2020/12/22 03:27:12;;;;;;;29.73;14.65;;;3.20;62.40;;;;;;5057000;28;20029;-70
2020/12/22 03:29:38;;;;;;;31.80;15.35;;;3.20;62.40;;;;;;5054774;28;20029;-70
2020/12/22 03:32:04;;;;;;;35.58;15.20;;;3.20;62.30;;;;;;5056617;28;20024;-70
2020/12/22 03:34:29;;;;;;;35.97;15.50;;;3.30;62.30;;;;;;5056075;28;20052;-71
2020/12/22 03:36:55;;;;;;;34.83;15.32;;;3.30;62.30;;;;;;5057069;28;20079;-70
2020/12/22 03:39:21;;;;;;;35.20;16.00;;;3.30;62.40;;;;;;5056209;28;20104;-71
2020/12/22 03:41:46;;;;;;;33.85;16.20;;;3.30;63.00;;;;;;5056214;28;20024;-69
2020/12/22 03:44:13;;;;;;;36.72;16.58;;;3.30;62.50;;;;;;5055669;28;20086;-70
2020/12/22 03:46:48;;;;;;;34.85;16.45;;;3.40;62.50;;;;;;5055315;28;20468;-71
2020/12/22 03:49:14;;;;;;;;;;;3.40;62.40;;;;;;5056412;28;20028;-71
2020/12/22 03:51:40;;;;;;;33.95;15.98;;;3.50;62.20;;;;;;5055720;28;19907;-70
2020/12/22 03:54:05;;;;;;;39.47;17.75;;;3.50;62.10;;;;;;5055939;28;20099;-70
2020/12/22 03:56:31;;;;;;;43.25;18.38;;;3.50;62.10;;;;;;5054730;28;20035;-70
2020/12/22 03:58:57;;;;;;;38.30;16.95;;;3.60;62.10;;;;;;5056107;28;20047;-71
2020/12/22 04:01:22;;;;;;;38.60;16.67;;;3.50;62.10;;;;;;5055116;28;20060;-70
2020/12/22 04:03:48;;;;;;;35.67;15.70;;;3.50;62.10;;;;;;5055745;28;20013;-70
2020/12/22 04:06:13;;;;;;;38.53;16.88;;;3.50;62.20;;;;;;5055800;28;20522;-70
2020/12/22 04:08:39;;;;;;;40.65;17.55;;;3.50;62.20;;;;;;5055344;28;20028;-72
2020/12/22 04:11:05;;;;;;;41.25;16.52;;;3.50;62.30;;;;;;5056226;28;20041;-69
2020/12/22 04:13:30;;;;;;;35.15;17.63;;;3.50;62.30;;;;;;5055869;28;20013;-71
2020/12/22 04:15:56;;;;;;;38.55;16.70;;;3.50;62.30;;;;;;5054004;28;20017;-70
2020/12/22 04:18:22;;;;;;;37.72;17.23;;;3.50;62.40;;;;;;5055543;28;20108;-70
2020/12/22 04:20:47;;;;;;;37.50;17.35;;;3.50;62.40;;;;;;5055207;28;20017;-70
2020/12/22 04:23:13;;;;;;;37.88;17.95;;;3.60;62.40;;;;;;5055140;28;20449;-70
2020/12/22 04:25:39;;;;;;;36.47;16.38;;;3.50;62.40;;;;;;5055393;28;20056;-71
2020/12/22 04:28:04;;;;;;;35.67;16.77;;;3.50;62.50;;;;;;5054179;28;20025;-70
2020/12/22 04:30:31;;;;;;;33.65;16.27;;;3.60;62.50;;;;;;5055597;28;20032;-71
2020/12/22 04:32:57;;;;;;;37.80;15.95;;;3.60;62.30;;;;;;5055527;28;20021;-71
2020/12/22 04:35:22;;;;;;;36.85;16.48;;;3.60;62.30;;;;;;5055204;28;20017;-70
2020/12/22 04:37:48;;;;;;;34.25;15.88;;;3.60;62.10;;;;;;5055346;28;20025;-71
2020/12/22 04:40:14;;;;;;;42.42;17.17;;;3.50;62.10;;;;;;5053809;28;20024;-72
2020/12/22 04:42:42;;;;;;;38.40;17.02;;;3.50;62.30;;;;;;5053914;28;20017;-70
2020/12/22 04:45:08;;;;;;;37.60;17.48;;;3.50;62.50;;;;;;5055570;28;20027;-70
2020/12/22 04:47:40;;;;;;;33.83;16.50;;;3.60;62.60;;;;;;5055175;28;20041;-71
2020/12/22 04:50:06;;;;;;;37.67;16.13;;;3.60;62.60;;;;;;5054885;28;20032;-71
2020/12/22 04:52:33;;;;;;;40.53;17.63;;;3.60;62.40;;;;;;5055042;28;20025;-70
2020/12/22 04:54:58;;;;;;;37.00;17.92;;;3.70;62.40;;;;;;5055415;28;20078;-71
2020/12/22 04:57:31;;;;;;;36.85;17.73;;;3.70;62.40;;;;;;5055299;28;20017;-70
2020/12/22 04:59:59;;;;;;;41.83;17.73;;;3.70;62.40;;;;;;5054694;28;20017;-71
2020/12/22 05:02:28;;;;;;;48.05;21.63;;;3.70;62.40;;;;;;5054618;28;20021;-71
2020/12/22 05:04:54;;;;;;;41.00;19.85;;;3.70;62.50;;;;;;5054478;28;20075;-71
2020/12/22 05:07:20;;;;;;;38.33;18.40;;;3.70;62.40;;;;;;5053347;28;20025;-71
2020/12/22 05:09:46;;;;;;;35.10;18.35;;;3.80;62.50;;;;;;5055149;28;20045;-70
2020/12/22 05:12:12;;;;;;;46.55;21.27;;;3.70;62.20;;;;;;5054119;28;20200;-70
2020/12/22 05:14:38;;;;;;;36.78;17.65;;;3.70;62.20;;;;;;5054746;28;20119;-70
2020/12/22 05:17:04;;;;;;;40.85;20.15;;;3.70;62.20;;;;;;5037024;28;20021;-70
2020/12/22 05:19:35;;;;;;;43.60;19.75;;;3.70;62.20;;;;;;5054014;28;20338;-70
2020/12/22 05:22:06;;;;;;;42.83;19.25;;;3.70;62.30;;;;;;5053177;28;20334;-70
2020/12/22 05:24:35;;;;;;;46.30;18.65;;;3.70;62.30;;;;;;5054159;28;20112;-69
2020/12/22 05:27:03;;;;;;;39.88;18.85;;;3.60;62.40;;;;;;5053549;28;20082;-70
2020/12/22 05:29:29;;;;;;;45.42;21.50;;;3.60;62.50;;;;;;5052571;28;20020;-71
2020/12/22 05:31:54;;;;;;;55.35;25.23;;;3.70;62.60;;;;;;5052594;28;20055;-70
2020/12/22 05:34:21;;;;;;;41.85;19.20;;;3.60;62.60;;;;;;5054223;28;20036;-70
2020/12/22 05:36:47;;;;;;;40.00;18.73;;;3.70;62.50;;;;;;5052335;28;20021;-71
2020/12/22 05:39:15;;;;;;;41.25;19.73;;;3.70;62.60;;;;;;5053701;28;20480;-71
2020/12/22 05:41:40;;;;;;;40.60;18.95;;;3.70;62.60;;;;;;5053563;28;20039;-70
2020/12/22 05:44:07;;;;;;;36.30;17.58;;;3.70;62.60;;;;;;5053770;28;20020;-70
2020/12/22 05:46:37;;;;;;;46.20;19.23;;;3.70;62.60;;;;;;5054121;28;20118;-70
2020/12/22 05:49:08;;;;;;;46.33;18.23;;;3.80;62.70;;;;;;5053158;28;20029;-71
2020/12/22 05:51:34;;;;;;;38.92;18.60;;;3.80;62.50;;;;;;5052901;28;20346;-71
2020/12/22 05:54:06;;;;;;;46.75;19.60;;;3.80;62.40;;;;;;5053596;28;20036;-71
2020/12/22 05:56:33;;;;;;;37.53;17.88;;;3.80;62.50;;;;;;5052366;28;20051;-70
2020/12/22 05:58:59;;;;;;;42.78;19.52;;;3.80;62.50;;;;;;5052264;28;20021;-70
2020/12/22 06:01:31;;;;;;;39.97;19.23;;;3.70;62.40;;;;;;5052262;28;20112;-71
2020/12/22 06:04:01;;;;;;;54.72;26.00;;;3.70;62.40;;;;;;5053487;28;20096;-71
2020/12/22 06:06:28;;;;;;;55.90;23.90;;;3.70;62.50;;;;;;5052216;28;20029;-71
2020/12/22 06:08:54;;;;;;;50.95;22.67;;;3.70;62.50;;;;;;5053251;28;20475;-71
2020/12/22 06:11:20;;;;;;;44.53;22.23;;;3.80;62.70;;;;;;5052187;28;20052;-70
2020/12/22 06:13:48;;;;;;;40.20;18.60;;;3.70;62.60;;;;;;5053132;28;20021;-71
2020/12/22 06:16:16;;;;;;;47.33;21.42;;;3.70;62.70;;;;;;5052085;28;20330;-74
2020/12/22 06:18:43;;;;;;;42.90;20.35;;;3.70;62.90;;;;;;5053633;28;20021;-72
2020/12/22 06:21:09;;;;;;;44.33;20.05;;;3.80;63.00;;;;;;5053151;28;20119;-72
2020/12/22 06:23:34;;;;;;;40.13;19.75;;;3.80;62.90;;;;;;5052870;28;20048;-71
2020/12/22 06:26:06;;;;;;;38.72;17.48;;;3.90;63.00;;;;;;5053619;28;20108;-72
2020/12/22 06:28:32;;;;;;;40.63;18.17;;;3.90;63.10;;;;;;5052886;28;20108;-72
2020/12/22 06:30:58;;;;;;;47.80;20.73;;;3.90;63.00;;;;;;5053126;28;20509;-71
2020/12/22 06:33:27;;;;;;;48.65;21.02;;;4.00;63.00;;;;;;5052929;28;20063;-71
2020/12/22 06:36:08;;;;;;;60.75;26.25;;;4.00;62.70;;;;;;5052220;28;20368;-72
2020/12/22 06:38:54;;;;;;;46.47;21.13;;;4.10;62.70;;;;;;5054887;28;20031;-71
2020/12/22 06:41:43;;;;;;;47.35;20.00;;;4.10;62.60;;;;;;5057369;28;20078;-72
2020/12/22 06:44:25;;;;;;;55.65;24.80;;;4.00;62.50;;;;;;5057357;28;20013;-72
2020/12/22 06:46:58;;;;;;;55.15;22.40;;;4.10;62.70;;;;;;5057476;28;20029;-71
2020/12/22 06:49:46;;;;;;;53.97;22.27;;;4.10;62.60;;;;;;5056652;28;20029;-72
2020/12/22 06:52:29;;;;;;;54.58;21.60;;;4.10;62.50;;;;;;5056624;28;20028;-72
2020/12/22 06:54:55;;;;;;;56.92;22.10;;;4.10;62.30;;;;;;5056883;28;20060;-70
2020/12/22 06:57:43;;;;;;;50.95;22.92;;;4.00;62.40;;;;;;5055760;28;20496;-71
2020/12/22 07:00:22;;;;;;;54.70;23.85;;;4.10;62.50;;;;;;5056751;28;20025;-71
2020/12/22 07:02:49;;;;;;;48.05;22.27;;;4.10;62.60;;;;;;5055685;28;20457;-72
2020/12/22 07:05:35;;;;;;;51.35;23.70;;;4.10;62.50;;;;;;5056674;28;20040;-71
2020/12/22 07:08:02;;;;;;;56.95;25.00;;;4.10;62.30;;;;;;5055660;28;20031;-71
2020/12/22 07:10:28;;;;;;;50.50;24.52;;;4.10;62.30;;;;;;5056726;28;20090;-71
2020/12/22 07:12:59;;;;;;;55.42;21.85;;;4.10;62.50;;;;;;5056630;28;20020;-71
2020/12/22 07:15:31;;;;;;;39.65;20.20;;;4.10;62.60;;;;;;5055301;28;20027;-73
2020/12/22 07:18:14;;;;;;;65.00;27.85;;;4.20;62.50;;;;;;5056507;28;20024;-70
2020/12/22 07:20:41;;;;;;;69.53;26.67;;;4.20;62.30;;;;;;5057112;28;20396;-76
2020/12/22 07:23:08;;;;;;;65.25;25.15;;;4.20;62.40;;;;;;5055151;28;20028;-72
2020/12/22 07:25:36;;;;;;;65.75;25.52;;;4.30;62.30;;;;;;5056463;28;20025;-71
2020/12/22 07:28:04;;;;;;;57.47;21.65;;;4.20;62.20;;;;;;5056410;28;20021;-70
2020/12/22 07:30:30;;;;;;;45.03;19.88;;;4.30;62.20;;;;;;5056118;28;20025;-71
2020/12/22 07:32:59;;;;;;;47.40;20.02;;;4.30;62.00;;;;;;5055665;28;20024;-71
2020/12/22 07:35:26;;;;;;;47.60;20.50;;;4.30;62.00;;;;;;5056092;28;20100;-71
2020/12/22 07:37:52;;;;;;;46.25;21.17;;;4.30;62.00;;;;;;5056041;28;20108;-72
2020/12/22 07:40:18;;;;;;;43.42;21.58;;;4.40;61.90;;;;;;5056063;28;20045;-71
2020/12/22 07:42:43;;;;;;;54.88;22.33;;;4.40;61.80;;;;;;5054594;28;20114;-71
2020/12/22 07:45:09;;;;;;;40.25;19.98;;;4.40;61.70;;;;;;5054581;28;20032;-70
2020/12/22 07:47:35;;;;;;;37.97;17.52;;;4.40;61.60;;;;;;5055536;28;20100;-72
2020/12/22 07:50:16;;;;;;;44.13;19.77;;;4.40;61.30;;;;;;5055200;28;20452;-72
2020/12/22 07:52:42;;;;;;;39.45;19.67;;;4.30;61.20;;;;;;5055571;28;20029;-71
2020/12/22 07:55:08;;;;;;;37.50;17.10;;;4.30;61.40;;;;;;5055937;28;20051;-70
2020/12/22 07:57:39;;;;;;;43.15;18.50;;;4.30;61.40;;;;;;5055772;28;20029;-71
2020/12/22 08:00:08;;;;;;;42.63;19.52;;;4.30;61.50;;;;;;5055741;28;20116;-71
2020/12/22 08:02:35;;;;;;;50.90;21.33;;;4.30;61.70;;;;;;5055716;28;20096;-71
2020/12/22 08:05:11;;;;;;;55.75;21.08;;;4.40;61.90;;;;;;5055992;28;20028;-71
2020/12/22 08:07:38;;;;;;;50.47;20.63;;;4.50;61.90;;;;;;5056213;28;20013;-72
2020/12/22 08:10:09;;;;;;;49.50;20.08;;;4.70;62.00;;;;;;5055421;28;20132;-72
2020/12/22 08:12:35;;;;;;;38.30;18.45;;;4.80;61.40;;;;;;5054397;28;20028;-70
2020/12/22 08:15:02;;;;;;;43.50;20.33;;;4.80;61.00;;;;;;5055436;28;20036;-71
2020/12/22 08:17:28;;;;;;;37.42;18.05;;;4.70;60.70;;;;;;5055512;28;20097;-70
2020/12/22 08:19:55;;;;;;;39.17;18.70;;;4.60;60.50;;;;;;5053804;28;20028;-71
2020/12/22 08:22:21;;;;;;;46.90;20.33;;;4.60;60.70;;;;;;5054159;28;20112;-72
2020/12/22 08:24:47;;;;;;;41.03;20.15;;;4.50;60.90;;;;;;5055693;28;20440;-71
2020/12/22 08:27:13;;;;;;;43.20;20.10;;;4.60;61.20;;;;;;5055530;28;20025;-71
2020/12/22 08:29:41;;;;;;;45.13;19.70;;;4.60;61.30;;;;;;5055411;28;20033;-71
2020/12/22 08:32:07;;;;;;;45.80;21.88;;;4.60;61.20;;;;;;5055689;28;20036;-73
2020/12/22 08:34:33;;;;;;;34.75;16.65;;;4.70;61.10;;;;;;5055035;28;20024;-71
2020/12/22 08:37:10;;;;;;;41.53;19.00;;;4.60;61.00;;;;;;5055471;28;20017;-73
2020/12/22 08:39:41;;;;;;;39.60;17.48;;;4.60;60.70;;;;;;5055184;28;20052;-71
2020/12/22 08:42:08;;;;;;;52.28;20.50;;;4.50;60.50;;;;;;5055083;28;20020;-70
2020/12/22 08:44:34;;;;;;;43.70;19.55;;;4.30;60.60;;;;;;5055300;28;20017;-71
2020/12/22 08:47:13;;;;;;;52.35;22.00;;;4.20;60.80;;;;;;5054766;28;20441;-73
2020/12/22 08:49:39;;;;;;;43.80;19.90;;;4.10;61.20;;;;;;5054268;28;20342;-70
2020/12/22 08:52:15;;;;;;;47.83;21.83;;;4.00;61.60;;;;;;5054880;28;20101;-71
2020/12/22 08:54:42;;;;;;;47.80;20.85;;;4.00;61.90;;;;;;5054779;28;20283;-71
2020/12/22 08:57:20;;;;;;;44.22;20.33;;;4.00;62.20;;;;;;5054394;28;20346;-73
2020/12/22 08:59:46;;;;;;;40.47;18.88;;;4.10;62.20;;;;;;5053170;28;20025;-71
2020/12/22 09:02:27;;;;;;;46.58;21.10;;;4.10;62.10;;;;;;5053530;28;20017;-70
2020/12/22 09:04:53;;;;;;;51.60;21.10;;;4.00;62.30;;;;;;5054340;28;20067;-71
2020/12/22 09:07:22;;;;;;;43.00;20.60;;;4.00;62.50;;;;;;5054364;28;20025;-73
2020/12/22 09:09:48;;;;;;;45.50;21.55;;;4.10;62.50;;;;;;5054312;28;20499;-71
2020/12/22 09:12:14;;;;;;;42.65;20.00;;;4.00;62.30;;;;;;5053069;28;20017;-71
2020/12/22 09:14:40;;;;;;;41.92;18.98;;;3.90;62.20;;;;;;5054016;28;20021;-74
2020/12/22 09:17:07;;;;;;;41.53;18.00;;;3.90;62.40;;;;;;5054111;28;20454;-71
2020/12/22 09:19:52;;;;;;;40.40;17.80;;;3.80;62.50;;;;;;5054090;28;20033;-71
2020/12/22 09:22:31;;;;;;;35.03;17.83;;;3.80;62.70;;;;;;5054201;28;20029;-74
2020/12/22 09:25:02;;;;;;;44.70;19.95;;;3.80;62.90;;;;;;5053707;28;20029;-72
2020/12/22 09:27:35;;;;;;;39.28;18.63;;;3.90;62.90;;;;;;5054133;28;20025;-71
2020/12/22 09:30:05;;;;;;;39.33;19.80;;;3.90;62.80;;;;;;5052793;28;20031;-71
2020/12/22 09:32:31;;;;;;;56.38;27.90;;;3.90;63.00;;;;;;5054536;28;20047;-70
2020/12/22 09:34:57;;;;;;;41.30;20.88;;;4.00;62.70;;;;;;5053059;28;20021;-71
2020/12/22 09:37:24;;;;;;;43.97;22.40;;;4.10;63.00;;;;;;5054202;28;20024;-70
2020/12/22 09:39:50;;;;;;;44.65;20.80;;;4.10;63.10;;;;;;5053984;28;20052;-71
2020/12/22 09:42:21;;;;;;;40.85;18.25;;;4.20;63.20;;;;;;5053832;28;20466;-72
2020/12/22 09:44:47;;;;;;;46.50;19.50;;;4.40;62.90;;;;;;5053691;28;20070;-73
2020/12/22 09:47:13;;;;;;;38.83;18.25;;;4.40;62.60;;;;;;5053807;28;20025;-71
2020/12/22 09:49:38;;;;;;;39.00;19.67;;;4.50;62.60;;;;;;5052027;28;20021;-71
2020/12/22 09:52:04;;;;;;;35.50;18.58;;;4.60;62.50;;;;;;5053351;28;20040;-70
2020/12/22 09:54:30;;;;;;;37.75;18.98;;;4.60;62.30;;;;;;5053640;28;20021;-71
2020/12/22 09:56:56;;;;;;;35.30;18.40;;;4.60;62.10;;;;;;5054117;28;20074;-71
2020/12/22 09:59:22;;;;;;;37.03;18.92;;;4.70;62.00;;;;;;5053538;28;20032;-70
2020/12/22 10:01:48;;;;;;;39.08;18.95;;;4.60;61.90;;;;;;5053506;28;20100;-72
2020/12/22 10:04:15;;;;;;;38.75;19.50;;;4.60;61.90;;;;;;5052400;28;20116;-72
2020/12/22 10:06:41;;;;;;;38.25;18.83;;;4.60;61.80;;;;;;5053346;28;20055;-71
2020/12/22 10:09:07;;;;;;;31.85;15.68;;;4.60;61.90;;;;;;5053216;28;20411;-70
2020/12/22 10:11:34;;;;;;;32.38;16.63;;;4.60;61.40;;;;;;5052632;28;20029;-71
2020/12/22 10:14:00;;;;;;;36.63;18.20;;;4.50;61.10;;;;;;5053264;28;20395;-72
2020/12/22 10:16:26;;;;;;;36.67;17.85;;;4.40;61.20;;;;;;5051947;28;20028;-70
2020/12/22 10:18:52;;;;;;;33.08;16.67;;;4.20;61.30;;;;;;5052439;28;20028;-72
2020/12/22 10:21:19;;;;;;;40.60;18.10;;;4.10;61.40;;;;;;5053500;28;20071;-72
2020/12/22 10:23:47;;;;;;;38.60;18.77;;;4.10;62.00;;;;;;5051799;28;20021;-72
2020/12/22 10:26:15;;;;;;;37.85;17.77;;;4.10;62.50;;;;;;5053295;28;20021;-70
2020/12/22 10:28:42;;;;;;;37.08;17.90;;;4.10;62.50;;;;;;5051791;28;20029;-72
2020/12/22 10:31:13;;;;;;;40.95;17.63;;;4.20;62.60;;;;;;5053045;28;20476;-72
2020/12/22 10:33:39;;;;;;;31.45;14.73;;;4.20;62.50;;;;;;5053416;28;20429;-70
2020/12/22 10:36:05;;;;;;;26.10;13.73;;;4.20;62.40;;;;;;5051883;28;20025;-71
2020/12/22 10:38:30;;;;;;;28.95;15.50;;;4.20;62.00;;;;;;5053371;28;20397;-72
2020/12/22 10:40:56;;;;;;;31.38;15.68;;;4.10;62.10;;;;;;5051905;28;20017;-72
2020/12/22 10:43:22;;;;;;;27.48;13.95;;;4.10;62.20;;;;;;5053711;28;20483;-70
2020/12/22 10:45:48;;;;;;;29.60;15.40;;;4.10;62.20;;;;;;5053274;28;20437;-73
2020/12/22 10:48:13;;;;;;;30.52;14.77;;;4.10;62.40;;;;;;5053386;28;20028;-73
2020/12/22 10:50:40;;;;;;;31.98;15.27;;;4.10;62.70;;;;;;5051679;28;20024;-71
2020/12/22 10:53:09;;;;;;;27.83;14.38;;;4.10;62.50;;;;;;5052617;28;20071;-72
2020/12/22 10:55:35;;;;;;;30.88;15.90;;;4.10;62.10;;;;;;5051571;28;20101;-72
2020/12/22 10:58:02;;;;;;;32.92;17.38;;;4.00;62.50;;;;;;5052890;28;20025;-71
2020/12/22 11:00:27;;;;;;;38.28;17.17;;;4.10;62.90;;;;;;5052904;28;20048;-71
2020/12/22 11:02:54;;;;;;;35.65;18.30;;;4.20;63.00;;;;;;5052874;28;20013;-70
2020/12/22 11:08:08;;;;;;;28.67;14.55;;;4.20;62.00;;;;;;5052483;28;20035;-72
2020/12/22 11:10:35;;;;;;;30.15;15.32;;;4.10;61.90;;;;;;5053144;28;20045;-70
2020/12/22 11:13:01;;;;;;;36.20;19.25;;;4.00;62.20;;;;;;5053122;28;20430;-70
2020/12/22 11:15:27;;;;;;;34.20;16.58;;;3.90;62.40;;;;;;5053132;28;20516;-72
2020/12/22 11:17:53;;;;;;;30.35;16.25;;;3.80;62.30;;;;;;5052680;28;20100;-74
2020/12/22 11:20:19;;;;;;;29.10;15.63;;;3.80;62.50;;;;;;5052927;28;20449;-73
2020/12/22 11:22:48;;;;;;;27.83;15.30;;;3.70;62.50;;;;;;5053274;28;20394;-71
2020/12/22 11:25:15;;;;;;;41.13;17.23;;;3.60;62.50;;;;;;5053794;28;20020;-71
2020/12/22 11:27:42;;;;;;;36.63;18.95;;;3.60;63.50;;;;;;5055142;28;20083;-70
2020/12/22 11:30:08;;;;;;;36.40;19.15;;;3.60;63.00;;;;;;5056275;28;20025;-70
2020/12/22 11:32:34;;;;;;;37.72;18.60;;;3.60;63.10;;;;;;5055963;28;20456;-71
2020/12/22 11:35:00;;;;;;;31.08;17.33;;;3.60;63.50;;;;;;5056195;28;20020;-72
2020/12/22 11:37:26;;;;;;;35.50;18.08;;;3.70;63.50;;;;;;5056257;28;20025;-71
2020/12/22 11:39:52;;;;;;;38.13;16.75;;;3.70;63.60;;;;;;5056408;28;20029;-72
2020/12/22 11:42:18;;;;;;;35.97;17.73;;;3.80;63.70;;;;;;5054804;28;20028;-70
2020/12/22 11:44:44;;;;;;;33.33;18.30;;;3.80;63.70;;;;;;5056423;28;20025;-70
2020/12/22 11:47:09;;;;;;;36.15;18.15;;;3.90;63.80;;;;;;5056251;28;20376;-71
2020/12/22 11:49:35;;;;;;;36.00;18.38;;;4.00;63.70;;;;;;5055919;28;20106;-72
2020/12/22 11:52:01;;;;;;;33.15;16.70;;;4.10;63.50;;;;;;5056126;28;20329;-72
2020/12/22 11:54:26;;;;;;;41.05;20.45;;;4.10;63.40;;;;;;5055637;28;20013;-71
2020/12/22 11:56:53;;;;;;;30.38;17.25;;;4.10;63.40;;;;;;5055915;28;20100;-73
2020/12/22 11:59:19;;;;;;;30.05;15.18;;;4.20;63.00;;;;;;5054589;28;20028;-72
2020/12/22 12:01:45;;;;;;;31.95;16.77;;;4.10;62.60;;;;;;5054666;28;20021;-72
2020/12/22 12:04:11;;;;;;;30.25;17.40;;;4.00;62.90;;;;;;5055862;28;20128;-71
2020/12/22 12:06:43;;;;;;;28.08;14.95;;;4.00;63.50;;;;;;5054967;28;20032;-71
2020/12/22 12:09:09;;;;;;;28.85;14.60;;;4.00;62.60;;;;;;5055496;28;20071;-71
2020/12/22 12:11:34;;;;;;;25.73;15.38;;;4.00;62.50;;;;;;5054509;28;20021;-71
2020/12/22 12:14:00;;;;;;;29.88;15.27;;;3.90;62.80;;;;;;5054539;28;20025;-71
2020/12/22 12:16:26;;;;;;;31.55;14.45;;;3.90;62.90;;;;;;5055961;28;20025;-72
2020/12/22 12:18:51;;;;;;;32.80;16.98;;;3.90;62.90;;;;;;5054976;28;20060;-71
2020/12/22 12:21:18;;;;;;;35.10;17.48;;;3.90;63.10;;;;;;5055249;28;20013;-71
2020/12/22 12:23:44;;;;;;;35.38;18.25;;;3.90;62.90;;;;;;5055745;28;20029;-70
2020/12/22 12:26:10;;;;;;;39.78;19.95;;;3.80;62.90;;;;;;5054408;28;20025;-71
2020/12/22 12:28:40;;;;;;;35.03;17.15;;;3.80;63.10;;;;;;5055262;28;20028;-72
2020/12/22 12:31:06;;;;;;;36.97;18.23;;;3.80;63.50;;;;;;5055288;28;20056;-72
2020/12/22 12:33:34;;;;;;;34.00;17.15;;;3.80;63.60;;;;;;5055262;28;20100;-70
2020/12/22 12:36:00;;;;;;;27.45;15.38;;;3.90;63.50;;;;;;5055268;28;20079;-72
2020/12/22 12:38:25;;;;;;;39.90;18.42;;;3.90;63.20;;;;;;5055349;28;20013;-72
2020/12/22 12:40:51;;;;;;;33.92;16.48;;;3.90;63.30;;;;;;5054826;28;20017;-71